Time;durP1;ratioP1;P1;durP2;ratioP2;P2;SDS_P1;SDS_P2;PMS_P1;PMS_P2;Temp;Humidity;BMP_temperature;BMP_pressure;BME280_temperature;BME280_humidity;BME280_pressure;Samples;Min_cycle;Max_cycle;Signal;HPM_P1;HPM_P2
2022/07/06 00:01:41;;;;;;;;;2.00;1.67;;;;;18.64;100.00;102156.03;5050113;28;45461;-78
2022/07/06 00:04:07;;;;;;;;;3.00;2.00;;;;;18.64;100.00;102161.59;5056507;28;45628;-79
2022/07/06 00:06:33;;;;;;;;;2.67;2.67;;;;;18.52;100.00;102159.56;5061145;28;45664;-78
2022/07/06 00:08:58;;;;;;;;;1.67;1.67;;;;;18.50;100.00;102156.16;5039434;28;45412;-79
2022/07/06 00:11:24;;;;;;;;;2.00;2.00;;;;;18.45;100.00;102161.53;5036098;28;45469;-79
2022/07/06 00:13:50;;;;;;;;;1.00;1.00;;;;;18.45;100.00;102158.75;5037183;28;45701;-81
2022/07/06 00:16:16;;;;;;;;;3.00;3.00;;;;;18.53;100.00;102171.50;5041480;28;46210;-80
2022/07/06 00:18:41;;;;;;;;;4.00;3.67;;;;;18.48;100.00;102169.41;5033500;28;45446;-80
2022/07/06 00:21:07;;;;;;;;;2.00;2.00;;;;;18.50;100.00;102163.63;5030734;28;45848;-79
2022/07/06 00:23:32;;;;;;;;;3.00;3.00;;;;;18.32;100.00;102139.44;5041899;28;45383;-81
2022/07/06 00:25:58;;;;;;;;;2.67;2.67;;;;;18.41;100.00;102157.50;5036597;28;45796;-80
2022/07/06 00:28:24;;;;;;;;;5.33;4.00;;;;;18.39;100.00;102156.06;5049140;28;45818;-81
2022/07/06 00:30:49;;;;;;;;;2.67;2.00;;;;;18.35;100.00;102158.41;5035752;28;45574;-82
2022/07/06 00:33:16;;;;;;;;;3.00;3.00;;;;;18.31;100.00;102149.69;5023943;28;47497;-81
2022/07/06 00:35:41;;;;;;;;;3.00;2.33;;;;;18.38;100.00;102163.50;5032341;28;47063;-81
2022/07/06 00:38:07;;;;;;;;;6.33;6.33;;;;;18.23;100.00;102141.63;5060105;28;45847;-81
2022/07/06 00:40:32;;;;;;;;;3.00;2.00;;;;;18.37;100.00;102167.38;5044561;28;45723;-82
2022/07/06 00:42:58;;;;;;;;;3.00;2.00;;;;;18.33;100.00;102163.34;5028216;28;46496;-81
2022/07/06 00:45:23;;;;;;;;;2.33;2.33;;;;;18.32;100.00;102156.97;5040657;28;46043;-80
2022/07/06 00:47:50;;;;;;;;;3.67;3.00;;;;;18.22;100.00;102148.28;5034267;28;45709;-81
2022/07/06 00:50:22;;;;;;;;;9.00;6.00;;;;;18.25;100.00;102145.06;5024490;28;45610;-80
2022/07/06 00:52:54;;;;;;;;;3.67;3.67;;;;;18.25;100.00;102164.50;5046036;28;45871;-80
2022/07/06 00:55:24;;;;;;;;;7.33;6.33;;;;;18.26;100.00;102160.63;5020134;28;46159;-80
2022/07/06 00:57:50;;;;;;;;;4.00;4.00;;;;;18.26;100.00;102165.34;5036307;28;45426;-81
2022/07/06 01:00:19;;;;;;;;;4.00;2.33;;;;;18.24;100.00;102173.03;5036176;28;45311;-80
2022/07/06 01:02:45;;;;;;;;;3.67;2.00;;;;;18.23;100.00;102165.78;5032870;28;45986;-80
2022/07/06 01:05:12;;;;;;;;;4.33;2.33;;;;;18.05;100.00;102142.41;5015852;28;47233;-77
2022/07/06 01:07:40;;;;;;;;;5.33;5.33;;;;;18.18;100.00;102160.91;5032581;28;45506;-77
2022/07/06 01:10:07;;;;;;;;;5.00;4.00;;;;;18.05;100.00;102156.28;5040902;28;45649;-76
2022/07/06 01:12:35;;;;;;;;;4.67;4.67;;;;;18.08;100.00;102169.72;5050207;28;46488;-76
2022/07/06 01:15:06;;;;;;;;;6.33;6.33;;;;;18.11;100.00;102172.09;5041452;28;47242;-78
2022/07/06 01:17:32;;;;;;;;;5.33;5.33;;;;;18.08;100.00;102169.72;5060940;28;45810;-79
2022/07/06 01:19:58;;;;;;;;;2.67;2.67;;;;;17.94;100.00;102148.69;5052599;28;45443;-79
2022/07/06 01:22:23;;;;;;;;;6.00;6.00;;;;;18.08;100.00;102175.28;5035655;28;46081;-78
2022/07/06 01:24:49;;;;;;;;;4.33;4.00;;;;;17.91;100.00;102151.94;5035772;28;45801;-77
2022/07/06 01:27:14;;;;;;;;;7.00;5.00;;;;;18.04;100.00;102174.03;5042648;28;45390;-78
2022/07/06 01:29:40;;;;;;;;;4.00;3.33;;;;;18.02;100.00;102176.19;5042408;28;45931;-77
2022/07/06 01:32:06;;;;;;;;;4.67;3.33;;;;;18.01;100.00;102174.50;5034518;28;45490;-78
2022/07/06 01:34:32;;;;;;;;;5.00;4.00;;;;;17.97;100.00;102173.22;5027498;28;47498;-78
2022/07/06 01:36:57;;;;;;;;;2.67;2.67;;;;;17.86;100.00;102157.25;5020214;28;45644;-77
2022/07/06 01:39:23;;;;;;;;;4.00;3.00;;;;;17.95;100.00;102170.69;5025783;28;45438;-79
2022/07/06 01:41:48;;;;;;;;;4.00;3.67;;;;;17.87;100.00;102159.78;5030284;28;46331;-79
2022/07/06 01:44:14;;;;;;;;;4.67;2.00;;;;;17.91;100.00;102174.13;5034931;28;45376;-78
2022/07/06 01:46:39;;;;;;;;;2.33;2.33;;;;;17.91;100.00;102177.75;5034715;28;45381;-78
2022/07/06 01:49:06;;;;;;;;;2.00;2.00;;;;;17.87;100.00;102173.66;5026691;28;45479;-79
2022/07/06 01:51:32;;;;;;;;;2.00;2.00;;;;;17.87;100.00;102175.59;5026661;28;45545;-80
2022/07/06 01:53:58;;;;;;;;;2.33;2.33;;;;;17.80;100.00;102170.94;5022612;28;47532;-80
2022/07/06 01:56:23;;;;;;;;;3.00;2.00;;;;;17.84;100.00;102176.91;5035039;28;45802;-80
2022/07/06 01:58:49;;;;;;;;;4.00;2.67;;;;;17.78;100.00;102166.69;5033765;28;46067;-79
2022/07/06 02:01:18;;;;;;;;;2.67;2.67;;;;;17.78;100.00;102169.47;5037038;28;45581;-80
2022/07/06 02:03:44;;;;;;;;;3.00;3.00;;;;;17.77;100.00;102179.72;5032582;28;45510;-79
2022/07/06 02:06:11;;;;;;;;;5.00;5.00;;;;;17.68;100.00;102161.63;5032588;28;45450;-78
2022/07/06 02:08:37;;;;;;;;;2.33;2.33;;;;;17.73;100.00;102172.91;5035094;28;45356;-80
2022/07/06 02:11:04;;;;;;;;;3.00;3.00;;;;;17.70;100.00;102178.91;5027086;28;45768;-81
2022/07/06 02:13:30;;;;;;;;;7.33;4.00;;;;;17.61;100.00;102158.03;5014815;28;48400;-80
2022/07/06 02:15:55;;;;;;;;;3.00;3.00;;;;;17.68;100.00;102172.75;5027036;28;45416;-79
2022/07/06 02:18:20;;;;;;;;;4.00;4.00;;;;;17.62;100.00;102170.84;5044264;28;45516;-81
2022/07/06 02:20:46;;;;;;;;;4.00;4.00;;;;;17.49;100.00;102146.78;5051997;28;45864;-80
2022/07/06 02:23:11;;;;;;;;;3.67;3.00;;;;;17.50;100.00;102145.72;5033247;28;46440;-79
2022/07/06 02:25:37;;;;;;;;;5.67;5.33;;;;;17.41;100.00;102131.25;5023883;28;45367;-80
2022/07/06 02:28:03;;;;;;;;;2.00;2.00;;;;;17.56;100.00;102153.16;5036794;28;45411;-80
2022/07/06 02:30:28;;;;;;;;;4.67;3.33;;;;;17.47;100.00;102144.25;5051386;28;45541;-79
2022/07/06 02:32:54;;;;;;;;;4.00;4.00;;;;;17.47;100.00;102138.69;5047898;28;47367;-78
2022/07/06 02:35:19;;;;;;;;;6.00;5.00;;;;;17.48;100.00;102139.53;5033961;28;45398;-77
2022/07/06 02:37:45;;;;;;;;;6.00;4.00;;;;;17.51;100.00;102152.13;5032658;28;45706;-79
2022/07/06 02:40:10;;;;;;;;;3.00;3.00;;;;;17.40;100.00;102132.31;5019332;28;46409;-78
2022/07/06 02:42:36;;;;;;;;;5.00;3.00;;;;;17.45;100.00;102154.72;5029077;28;47078;-80
2022/07/06 02:45:02;;;;;;;;;5.00;3.33;;;;;17.44;100.00;102153.00;5022055;28;45736;-79
2022/07/06 02:47:27;;;;;;;;;3.33;3.00;;;;;17.43;100.00;102161.53;5034793;28;45788;-76
2022/07/06 02:49:54;;;;;;;;;5.67;3.00;;;;;17.41;100.00;102161.75;5014581;28;46389;-75
2022/07/06 02:52:19;;;;;;;;;4.00;4.00;;;;;17.28;100.00;102148.78;5032767;28;48495;-76
2022/07/06 02:54:45;;;;;;;;;5.00;3.33;;;;;17.28;100.00;102159.88;5043511;28;45719;-78
2022/07/06 02:57:10;;;;;;;;;3.67;3.67;;;;;17.29;100.00;102163.53;5035337;28;45805;-80
2022/07/06 02:59:36;;;;;;;;;5.67;4.00;;;;;17.30;100.00;102173.53;5020336;28;45770;-81
2022/07/06 03:02:06;;;;;;;;;4.00;4.00;;;;;17.17;100.00;102154.16;5016294;28;47992;-78
2022/07/06 03:04:32;;;;;;;;;3.00;3.00;;;;;17.26;100.00;102181.44;5039900;28;45387;-77
2022/07/06 03:06:57;;;;;;;;;7.67;6.00;;;;;17.19;100.00;102163.97;5048752;28;45898;-78
2022/07/06 03:09:22;;;;;;;;;3.00;3.00;;;;;17.21;100.00;102175.69;5043441;28;45865;-77
2022/07/06 03:11:48;;;;;;;;;3.33;3.00;;;;;17.23;100.00;102183.78;5044560;28;45402;-78
2022/07/06 03:14:13;;;;;;;;;7.00;4.67;;;;;17.06;100.00;102156.53;5041506;28;45706;-78
2022/07/06 03:16:39;;;;;;;;;3.33;3.00;;;;;17.19;100.00;102177.00;5039939;28;45486;-79
2022/07/06 03:19:04;;;;;;;;;4.00;4.00;;;;;17.18;100.00;102184.44;5054385;28;45580;-79
2022/07/06 03:21:30;;;;;;;;;7.33;4.00;;;;;17.15;100.00;102184.88;5054197;28;45822;-79
2022/07/06 03:23:56;;;;;;;;;5.33;3.67;;;;;17.13;100.00;102183.41;5044989;28;45445;-76
2022/07/06 03:26:21;;;;;;;;;6.00;5.33;;;;;17.11;100.00;102178.94;5044276;28;45663;-78
2022/07/06 03:28:47;;;;;;;;;4.00;4.00;;;;;17.05;100.00;102171.50;5039872;28;46121;-80
2022/07/06 03:31:12;;;;;;;;;7.00;5.00;;;;;17.11;100.00;102180.84;5054399;28;45354;-80
2022/07/06 03:33:38;;;;;;;;;6.67;6.33;;;;;17.08;100.00;102182.13;5050615;28;45563;-80
2022/07/06 03:36:04;;;;;;;;;8.33;4.00;;;;;16.89;100.00;102155.31;5051373;28;45588;-80
2022/07/06 03:38:30;;;;;;;;;5.00;5.00;;;;;17.09;100.00;102189.38;5053568;28;45717;-80
2022/07/06 03:40:55;;;;;;;;;6.00;4.33;;;;;17.05;100.00;102185.34;5043557;28;45482;-81
2022/07/06 03:43:20;;;;;;;;;4.00;4.00;;;;;17.04;100.00;102180.88;5033056;28;45721;-81
2022/07/06 03:45:46;;;;;;;;;4.00;3.33;;;;;17.06;100.00;102194.50;5025116;28;45627;-80
2022/07/06 03:48:11;;;;;;;;;4.00;4.00;;;;;17.05;100.00;102190.88;5032599;28;45467;-80
2022/07/06 03:50:37;;;;;;;;;6.33;4.00;;;;;16.93;100.00;102174.06;5056838;28;46588;-81
2022/07/06 03:53:02;;;;;;;;;6.00;4.00;;;;;17.06;100.00;102195.34;5033111;28;45307;-79
2022/07/06 03:55:28;;;;;;;;;7.00;3.00;;;;;17.11;100.00;102203.00;5045000;28;45555;-78
2022/07/06 03:57:54;;;;;;;;;4.67;4.67;;;;;17.12;100.00;102193.63;5051090;28;45482;-80
2022/07/06 04:00:19;;;;;;;;;4.00;4.00;;;;;17.06;100.00;102187.03;5039839;28;45403;-80
2022/07/06 04:02:45;;;;;;;;;5.00;5.00;;;;;17.11;100.00;102187.25;5040683;28;45871;-80
2022/07/06 04:05:10;;;;;;;;;5.00;3.67;;;;;17.32;100.00;102201.91;5046415;28;45765;-79
2022/07/06 04:07:35;;;;;;;;;5.00;4.67;;;;;17.45;100.00;102190.78;5019978;28;46986;-79
2022/07/06 04:10:01;;;;;;;;;5.00;3.00;;;;;17.70;100.00;102200.25;5043050;28;45891;-79
2022/07/06 04:12:26;;;;;;;;;4.33;4.33;;;;;17.99;100.00;102198.84;5033289;28;45652;-79
2022/07/06 04:14:52;;;;;;;;;4.33;4.33;;;;;18.33;100.00;102200.31;5035971;28;45855;-78
2022/07/06 04:20:02;;;;;;;;;5.67;3.67;;;;;19.10;100.00;102179.75;5042835;28;45791;-76
2022/07/06 04:22:28;;;;;;;;;5.67;4.67;;;;;19.61;100.00;102197.13;5038245;28;45493;-76
2022/07/06 04:24:53;;;;;;;;;4.00;4.00;;;;;20.06;100.00;102195.88;5038331;28;45350;-78
2022/07/06 04:27:19;;;;;;;;;8.00;4.67;;;;;20.51;100.00;102200.09;5037103;28;45455;-79
2022/07/06 04:29:44;;;;;;;;;19.00;14.67;;;;;20.92;100.00;102176.03;5041170;28;45600;-77
2022/07/06 04:32:10;;;;;;;;;19.33;16.33;;;;;21.46;100.00;102185.03;5033333;28;46038;-78
2022/07/06 04:34:35;;;;;;;;;23.67;20.00;;;;;21.95;100.00;102179.03;5040203;28;45424;-79
2022/07/06 04:37:01;;;;;;;;;26.33;24.33;;;;;22.47;100.00;102177.16;5046866;28;45380;-78
2022/07/06 04:39:27;;;;;;;;;10.67;9.00;;;;;22.85;100.00;102156.78;5058742;28;46913;-79
2022/07/06 04:41:53;;;;;;;;;23.00;22.33;;;;;23.51;100.00;102180.38;5047994;28;45908;-77
2022/07/06 04:44:18;;;;;;;;;6.33;6.33;;;;;24.03;100.00;102174.25;5029171;28;45439;-79
2022/07/06 04:46:54;;;;;;;;;7.00;6.00;;;;;24.66;100.00;102184.94;5045572;28;45813;-81
2022/07/06 04:49:20;;;;;;;;;16.00;13.33;;;;;25.15;100.00;102173.44;5023923;28;47253;-79
2022/07/06 04:51:45;;;;;;;;;9.33;8.00;;;;;25.71;100.00;102175.66;5035353;28;45859;-78
2022/07/06 04:54:11;;;;;;;;;7.67;7.67;;;;;26.22;98.33;102174.09;5044821;28;45579;-79
2022/07/06 04:56:36;;;;;;;;;5.00;5.00;;;;;26.76;94.90;102175.50;5021150;28;47209;-77
2022/07/06 04:59:02;;;;;;;;;4.67;4.67;;;;;27.42;91.03;102184.91;5022058;28;48324;-78
2022/07/06 05:01:28;;;;;;;;;8.33;8.33;;;;;27.98;85.16;102181.81;5034247;28;45768;-79
2022/07/06 05:03:53;;;;;;;;;6.33;6.33;;;;;28.58;81.64;102197.69;5033195;28;45726;-77
2022/07/06 05:06:19;;;;;;;;;4.67;4.67;;;;;29.12;76.74;102177.94;5039358;28;45489;-79
2022/07/06 05:08:45;;;;;;;;;5.00;5.00;;;;;29.88;70.65;102181.81;5027324;28;46258;-76
2022/07/06 05:11:11;;;;;;;;;5.67;5.67;;;;;30.46;64.59;102185.44;5042667;28;46061;-75
2022/07/06 05:13:37;;;;;;;;;4.00;4.00;;;;;30.92;59.75;102164.78;5038745;28;45493;-78
2022/07/06 05:16:03;;;;;;;;;6.67;5.33;;;;;31.58;56.26;102180.75;5027457;28;46294;-78
2022/07/06 05:18:28;;;;;;;;;5.33;4.00;;;;;32.17;54.42;102187.34;5066076;27;45536;-78
2022/07/06 05:20:54;;;;;;;;;4.33;4.33;;;;;32.68;50.13;102185.22;5054809;28;46007;-82
2022/07/06 05:23:20;;;;;;;;;5.33;4.33;;;;;33.20;47.00;102180.94;5029881;28;45594;-75
2022/07/06 05:25:46;;;;;;;;;5.67;4.33;;;;;33.66;45.08;102173.03;5033421;28;45790;-77
2022/07/06 05:28:11;;;;;;;;;6.00;5.00;;;;;34.19;42.23;102174.72;5042022;28;46160;-78
2022/07/06 05:30:37;;;;;;;;;5.33;5.00;;;;;34.58;40.32;102177.72;5036312;28;45435;-78
2022/07/06 05:33:02;;;;;;;;;4.67;4.67;;;;;35.04;40.13;102180.94;5021864;28;46363;-78
2022/07/06 05:35:31;;;;;;;;;3.75;3.75;;;;;35.55;38.05;102170.44;5026156;28;45906;-76
2022/07/06 05:37:57;;;;;;;;;5.25;5.25;;;;;36.16;36.02;102181.38;5044801;28;45364;-79
2022/07/06 05:40:23;;;;;;;;;4.67;4.67;;;;;36.72;34.65;102197.31;5026031;28;45506;-77
2022/07/06 05:42:48;;;;;;;;;4.00;4.00;;;;;37.10;33.21;102193.34;5043147;28;45813;-78
2022/07/06 05:45:15;;;;;;;;;6.00;5.67;;;;;37.40;31.88;102176.78;5047746;28;45682;-80
2022/07/06 05:50:27;;;;;;;;;7.67;5.33;;;;;38.32;30.69;102188.59;5047736;28;45911;-84
2022/07/06 05:53:00;;;;;;;;;4.00;4.00;;;;;38.65;29.82;102180.94;5043858;28;45362;-79
2022/07/06 05:55:27;;;;;;;;;7.00;5.67;;;;;39.01;28.45;102167.50;5044009;28;45430;-77
2022/07/06 05:57:53;;;;;;;;;4.33;4.33;;;;;39.44;27.77;102185.00;5023369;28;47882;-74
2022/07/06 06:00:21;;;;;;;;;4.33;4.00;;;;;39.82;27.72;102189.16;5026136;28;46601;-74
2022/07/06 06:02:46;;;;;;;;;5.00;5.00;;;;;40.16;26.68;102181.69;5031155;28;45886;-75
2022/07/06 06:05:13;;;;;;;;;5.00;5.00;;;;;40.49;26.18;102183.19;5036602;28;45618;-76
2022/07/06 06:07:40;;;;;;;;;4.00;4.00;;;;;40.98;25.59;102190.25;5025586;28;48224;-84
2022/07/06 06:10:11;;;;;;;;;6.33;5.33;;;;;41.42;24.93;102194.69;5051458;28;45772;-83
2022/07/06 06:15:44;;;;;;;;;5.00;5.00;;;;;41.98;23.31;102199.63;5070554;22;47000;-73
2022/07/06 06:18:09;;;;;;;;;7.00;7.00;;;;;42.33;22.82;102204.16;5025213;28;45679;-75
2022/07/06 06:20:35;;;;;;;;;5.00;4.33;;;;;42.64;22.80;102198.31;5025323;28;45634;-74
2022/07/06 06:23:00;;;;;;;;;5.67;4.00;;;;;43.14;21.89;102189.31;5030851;28;45252;-75
2022/07/06 06:25:34;;;;;;;;;6.33;6.33;;;;;43.65;22.06;102202.88;5015339;28;45530;-77
2022/07/06 06:28:01;;;;;;;;;5.00;4.33;;;;;44.01;21.05;102197.28;5031273;28;46983;-73
2022/07/06 06:30:27;;;;;;;;;4.33;4.00;;;;;44.25;20.86;102197.81;5028992;28;45324;-74
2022/07/06 06:33:04;;;;;;;;;6.00;6.00;;;;;44.53;20.68;102188.38;5032270;28;45473;-74
2022/07/06 06:35:30;;;;;;;;;5.67;5.67;;;;;44.88;19.91;102186.75;5027222;28;45545;-75
2022/07/06 06:37:55;;;;;;;;;6.33;5.67;;;;;45.24;19.54;102194.63;5030910;28;45322;-75
2022/07/06 06:40:21;;;;;;;;;5.00;5.00;;;;;45.48;19.32;102195.84;5025397;28;45579;-75
2022/07/06 06:42:47;;;;;;;;;4.33;4.00;;;;;46.06;18.67;102196.47;5021586;28;45334;-75
2022/07/06 06:45:12;;;;;;;;;5.00;5.00;;;;;46.33;18.06;102195.94;5028925;28;45535;-73
2022/07/06 06:47:37;;;;;;;;;7.00;5.33;;;;;46.49;17.70;102195.44;5029113;28;45620;-73
2022/07/06 06:50:03;;;;;;;;;5.00;5.00;;;;;46.77;17.88;102205.19;5004573;28;45700;-73
2022/07/06 06:52:28;;;;;;;;;6.00;5.33;;;;;46.95;17.23;102199.22;5028559;28;45707;-77
2022/07/06 06:54:54;;;;;;;;;4.00;4.00;;;;;47.24;17.33;102202.72;5001100;28;46313;-75
2022/07/06 06:57:19;;;;;;;;;6.00;5.00;;;;;47.76;16.81;102193.06;5021140;28;45675;-75
2022/07/06 06:59:45;;;;;;;;;4.33;4.33;;;;;47.88;16.51;102201.22;5021246;28;45721;-75
2022/07/06 07:02:10;;;;;;;;;4.67;4.00;;;;;48.08;16.39;102191.84;5017510;28;45791;-74
2022/07/06 07:04:35;;;;;;;;;6.67;4.67;;;;;48.17;15.79;102200.84;5017527;28;45637;-73
2022/07/06 07:07:01;;;;;;;;;6.00;6.00;;;;;48.37;15.87;102195.13;5031345;28;45785;-73
2022/07/06 07:09:26;;;;;;;;;7.00;3.67;;;;;48.63;15.70;102201.41;5031781;28;45500;-75
2022/07/06 07:11:52;;;;;;;;;3.33;3.00;;;;;48.87;15.18;102201.44;5031588;28;45718;-73
2022/07/06 07:14:17;;;;;;;;;3.00;3.00;;;;;49.18;14.90;102204.25;5031556;28;45729;-74
2022/07/06 07:16:43;;;;;;;;;7.00;4.00;;;;;49.44;14.51;102202.50;5013373;28;46195;-73
2022/07/06 07:19:08;;;;;;;;;4.67;3.67;;;;;49.60;14.59;102202.63;5025244;28;45409;-74
2022/07/06 07:21:34;;;;;;;;;4.00;2.33;;;;;49.80;14.08;102198.88;5025541;28;45758;-73
2022/07/06 07:23:59;;;;;;;;;4.00;4.00;;;;;50.00;14.27;102205.53;5026541;28;45954;-72
2022/07/06 07:26:24;;;;;;;;;4.33;4.33;;;;;50.17;13.30;102209.31;5029627;28;45414;-74
2022/07/06 07:28:50;;;;;;;;;4.33;3.00;;;;;50.16;13.81;102212.69;5030379;28;45684;-74
2022/07/06 07:31:16;;;;;;;;;3.00;3.00;;;;;50.45;13.48;102195.34;5030845;28;45630;-75
2022/07/06 07:33:41;;;;;;;;;3.00;3.00;;;;;50.74;13.51;102199.66;5029807;28;45888;-74
2022/07/06 07:36:07;;;;;;;;;2.00;2.00;;;;;51.03;13.39;102193.91;5025664;28;45760;-74
2022/07/06 07:38:33;;;;;;;;;2.00;2.00;;;;;51.43;12.73;102190.75;5022614;28;45584;-73
2022/07/06 07:40:58;;;;;;;;;3.33;1.67;;;;;51.89;12.66;102190.63;5012978;28;45367;-73
2022/07/06 07:43:24;;;;;;;;;2.00;2.00;;;;;52.12;12.47;102188.69;5020149;28;45306;-74
2022/07/06 07:45:49;;;;;;;;;3.00;3.00;;;;;52.47;11.82;102194.72;5025770;28;45842;-75
2022/07/06 07:48:16;;;;;;;;;4.33;4.33;;;;;52.85;12.14;102180.00;5013535;28;45660;-74
2022/07/06 07:50:42;;;;;;;;;3.33;3.00;;;;;52.84;11.58;102180.47;5025539;28;45809;-73
2022/07/06 07:53:07;;;;;;;;;3.00;3.00;;;;;52.87;11.57;102177.44;5036423;28;45518;-74
2022/07/06 07:55:33;;;;;;;;;4.00;4.00;;;;;52.99;11.78;102184.53;5034018;28;46148;-74
2022/07/06 07:57:59;;;;;;;;;2.33;1.67;;;;;53.02;11.43;102180.69;5034641;28;45765;-74
2022/07/06 08:00:25;;;;;;;;;3.33;2.67;;;;;53.34;11.45;102184.56;5015973;28;45461;-73
2022/07/06 08:02:50;;;;;;;;;3.00;3.00;;;;;53.49;10.91;102186.97;5033812;28;45491;-74
2022/07/06 08:05:16;;;;;;;;;2.00;2.00;;;;;53.75;10.83;102185.53;5029296;28;46171;-73
2022/07/06 08:07:42;;;;;;;;;3.33;2.00;;;;;54.16;11.25;102183.47;5015444;28;45309;-74
2022/07/06 08:10:09;;;;;;;;;5.00;4.00;;;;;54.32;10.51;102178.63;5024945;28;45614;-73
2022/07/06 08:12:35;;;;;;;;;3.00;3.00;;;;;54.45;10.97;102175.59;5031383;28;45396;-74
2022/07/06 08:15:01;;;;;;;;;2.33;2.33;;;;;54.41;10.84;102178.72;5034384;28;45343;-75
2022/07/06 08:17:26;;;;;;;;;2.00;2.00;;;;;54.55;10.87;102176.47;5005499;28;45810;-73
2022/07/06 08:19:52;;;;;;;;;2.33;2.00;;;;;54.64;10.57;102170.59;5029203;28;45842;-76
2022/07/06 08:22:17;;;;;;;;;3.00;3.00;;;;;54.86;11.04;102183.06;5015532;28;45798;-74
2022/07/06 08:24:43;;;;;;;;;5.00;3.00;;;;;54.98;10.29;102175.44;5016557;28;45381;-75
2022/07/06 08:27:08;;;;;;;;;2.67;2.33;;;;;54.80;10.73;102172.44;5015729;28;45322;-75
2022/07/06 08:29:35;;;;;;;;;3.00;3.00;;;;;54.76;10.13;102178.47;5029768;28;45542;-75
2022/07/06 08:32:00;;;;;;;;;3.00;3.00;;;;;54.67;10.54;102178.47;5023575;28;45504;-75
2022/07/06 08:34:26;;;;;;;;;2.00;2.00;;;;;54.76;10.65;102172.59;5014361;28;46941;-77
2022/07/06 08:36:51;;;;;;;;;4.00;3.00;;;;;55.16;10.00;102170.84;5020394;28;45255;-75
2022/07/06 08:39:17;;;;;;;;;2.33;2.33;;;;;55.09;10.71;102174.94;5023987;27;46172;-75
2022/07/06 08:41:47;;;;;;;;;3.00;2.00;;;;;55.08;10.47;102175.41;5015253;28;45642;-74
2022/07/06 08:44:15;;;;;;;;;2.00;2.00;;;;;55.40;10.37;102171.03;5005720;28;45710;-73
2022/07/06 08:46:41;;;;;;;;;4.00;3.00;;;;;55.58;10.09;102160.50;5017979;28;45840;-74
2022/07/06 08:49:08;;;;;;;;;3.00;3.00;;;;;55.55;10.33;102174.91;5023338;28;45345;-76
2022/07/06 08:51:37;;;;;;;;;4.00;4.00;;;;;55.61;9.75;102174.22;5025794;28;46163;-76
2022/07/06 08:54:03;;;;;;;;;4.00;3.00;;;;;55.61;9.91;102171.28;5026075;28;45972;-75
2022/07/06 08:56:29;;;;;;;;;2.67;2.67;;;;;55.68;10.47;102162.97;5022581;28;45560;-74
2022/07/06 08:58:55;;;;;;;;;4.67;3.33;;;;;55.96;10.05;102162.91;5027021;28;45571;-75
2022/07/06 09:01:21;;;;;;;;;2.00;2.00;;;;;56.26;9.70;102159.34;5030555;28;45532;-76
2022/07/06 09:03:49;;;;;;;;;2.00;2.00;;;;;56.08;9.69;102152.22;5033341;28;46117;-75
2022/07/06 09:06:25;;;;;;;;;1.67;1.00;;;;;55.91;9.89;102148.84;5024540;28;45496;-75
2022/07/06 09:08:54;;;;;;;;;4.67;3.33;;;;;55.72;10.12;102153.97;5030591;28;45379;-75
2022/07/06 09:11:21;;;;;;;;;4.33;2.67;;;;;55.46;9.85;102151.41;5017512;28;45917;-74
2022/07/06 09:13:47;;;;;;;;;5.00;3.67;;;;;55.51;10.42;102156.59;5025680;28;46460;-74
2022/07/06 09:16:15;;;;;;;;;2.00;2.00;;;;;55.58;10.31;102154.63;5027342;28;45928;-77
2022/07/06 09:18:44;;;;;;;;;2.00;1.67;;;;;55.40;10.52;102150.44;5032180;28;45535;-75
2022/07/06 09:21:10;;;;;;;;;2.00;2.00;;;;;55.30;10.45;102137.03;5026235;28;46221;-75
2022/07/06 09:23:36;;;;;;;;;3.00;1.33;;;;;55.20;10.61;102145.84;5025776;28;45567;-74
2022/07/06 09:26:08;;;;;;;;;1.67;1.67;;;;;55.15;10.22;102137.69;5030399;28;46665;-76
2022/07/06 09:28:46;;;;;;;;;1.67;1.67;;;;;55.21;9.91;102132.75;5022216;28;45553;-72
2022/07/06 09:31:12;;;;;;;;;1.00;1.00;;;;;55.41;10.19;102142.41;5031462;28;45445;-73
2022/07/06 09:33:38;;;;;;;;;4.00;2.00;;;;;55.36;10.02;102138.00;5024609;28;45578;-74
2022/07/06 09:36:05;;;;;;;;;3.33;3.00;;;;;55.39;10.10;102142.91;5025400;28;45763;-73
2022/07/06 09:38:35;;;;;;;;;2.67;2.67;;;;;55.60;10.04;102137.31;5026974;28;46040;-75
2022/07/06 09:41:02;;;;;;;;;4.00;2.67;;;;;55.19;9.96;102129.50;5004651;28;45589;-75
2022/07/06 09:43:30;;;;;;;;;3.00;1.67;;;;;55.06;9.82;102137.69;5000697;28;48346;-72
2022/07/06 09:45:57;;;;;;;;;2.00;2.00;;;;;55.15;10.72;102139.81;5014989;28;45742;-73
2022/07/06 09:48:24;;;;;;;;;2.67;2.00;;;;;54.33;10.98;102137.06;5026109;28;45485;-73
2022/07/06 09:50:56;;;;;;;;;2.00;2.00;;;;;53.06;10.77;102142.44;5032339;28;45919;-72
2022/07/06 09:53:26;;;;;;;;;2.33;1.67;;;;;53.06;11.56;102137.41;5022877;28;45609;-73
2022/07/06 09:55:55;;;;;;;;;3.00;2.00;;;;;53.57;10.99;102133.41;5027371;28;45603;-73
2022/07/06 09:58:22;;;;;;;;;2.00;2.00;;;;;54.08;10.75;102132.25;5021367;28;45347;-73
2022/07/06 10:00:48;;;;;;;;;3.00;2.33;;;;;54.34;10.35;102132.00;5030226;28;45789;-73
2022/07/06 10:03:15;;;;;;;;;2.00;2.00;;;;;54.75;10.46;102135.69;5032601;28;45759;-73
2022/07/06 10:05:42;;;;;;;;;4.00;1.33;;;;;55.06;10.22;102131.81;5032939;28;45481;-74
2022/07/06 10:08:09;;;;;;;;;3.00;3.00;;;;;55.62;9.82;102140.56;5018588;28;45929;-77
2022/07/06 10:10:37;;;;;;;;;2.00;2.00;;;;;55.28;10.07;102134.56;5007641;28;46060;-75
2022/07/06 10:13:05;;;;;;;;;1.67;1.67;;;;;54.14;10.61;102127.38;5008482;28;48713;-74
2022/07/06 10:15:33;;;;;;;;;16.33;14.33;;;;;52.43;11.60;102125.38;5024958;28;45579;-74
2022/07/06 10:18:03;;;;;;;;;3.00;3.00;;;;;50.85;11.48;102124.25;5009922;28;45736;-74
2022/07/06 10:20:33;;;;;;;;;2.33;2.33;;;;;50.91;11.96;102128.25;5021396;28;45875;-74
2022/07/06 10:23:00;;;;;;;;;3.00;3.00;;;;;50.59;12.81;102129.91;5022529;28;46365;-74
2022/07/06 10:25:27;;;;;;;;;3.67;3.00;;;;;49.17;13.15;102132.63;5025751;28;45927;-76
2022/07/06 10:27:55;;;;;;;;;5.33;3.67;;;;;48.36;13.63;102125.72;5013576;28;45730;-74
2022/07/06 10:30:21;;;;;;;;;3.00;2.00;;;;;48.59;13.67;102119.94;5011104;28;46468;-75
2022/07/06 10:32:49;;;;;;;;;3.33;3.33;;;;;49.30;13.37;102114.09;5023166;28;46485;-73
2022/07/06 10:35:15;;;;;;;;;2.00;2.00;;;;;49.44;12.58;102115.06;5024227;28;45303;-77
2022/07/06 10:37:41;;;;;;;;;4.00;4.00;;;;;50.31;12.65;102125.63;5002897;28;45969;-78
2022/07/06 10:43:02;;;;;;;;;6.67;4.00;;;;;51.93;12.17;102124.03;5019676;28;45809;-77
2022/07/06 10:45:27;;;;;;;;;5.33;5.00;;;;;52.24;11.65;102120.56;5014596;28;45810;-76
2022/07/06 10:48:11;;;;;;;;;6.67;4.00;;;;;51.36;12.43;102124.50;5026841;28;45537;-77
2022/07/06 10:50:46;;;;;;;;;11.00;11.00;;;;;50.55;13.11;102116.66;5022730;28;45548;-77
2022/07/06 10:53:12;;;;;;;;;10.00;9.00;;;;;49.29;13.52;102118.25;5023807;28;45459;-75
2022/07/06 10:55:50;;;;;;;;;3.50;3.50;;;;;47.43;14.14;102119.09;5004286;28;45637;-78
2022/07/06 10:58:40;;;;;;;;;14.67;14.67;;;;;46.98;14.88;102117.94;5021920;28;45955;-76
2022/07/06 11:01:07;;;;;;;;;6.00;6.00;;;;;46.51;14.93;102121.19;5005468;28;46077;-77
2022/07/06 11:03:37;;;;;;;;;14.33;8.67;;;;;46.03;15.41;102126.91;5021906;28;45864;-78
2022/07/06 11:06:16;;;;;;;;;6.33;6.33;;;;;45.90;15.74;102124.47;5007094;28;45469;-76
2022/07/06 11:08:48;;;;;;;;;5.67;5.67;;;;;45.64;15.33;102112.16;5027924;28;45877;-76
2022/07/06 11:11:18;;;;;;;;;7.67;6.33;;;;;45.95;15.21;102105.84;5002222;28;46137;-75
2022/07/06 11:14:14;;;;;;;;;13.33;12.00;;;;;46.38;15.39;102108.44;5025780;28;45569;-76
2022/07/06 11:17:04;;;;;;;;;9.00;6.00;;;;;46.83;14.69;102105.59;5017476;28;45525;-74
2022/07/06 11:19:30;;;;;;;;;6.00;5.00;;;;;46.11;15.05;102100.34;5021289;28;45938;-76
2022/07/06 11:22:05;;;;;;;;;12.00;9.67;;;;;45.99;15.15;102092.13;5020580;28;45441;-76
2022/07/06 11:24:33;;;;;;;;;5.00;4.67;;;;;44.94;15.68;102100.31;5015070;28;46510;-76
2022/07/06 11:27:00;;;;;;;;;5.33;5.33;;;;;43.72;16.57;102093.09;5023128;28;45347;-75
2022/07/06 11:29:27;;;;;;;;;7.67;6.00;;;;;43.04;16.76;102098.50;5024697;28;45700;-75
2022/07/06 11:31:59;;;;;;;;;5.00;5.00;;;;;42.22;17.07;102087.91;5006566;28;46368;-77